Airfield :
LOGIN :

Register | Disclaimer

   EN    FR    IT 

 










Legend :    VFR   Marginal VFR   IFR   Intensive IFR   Very Intensive IFR
Visi :
Ceiling :
>= 8 km
>= 3000ft
5 to 8 km
1000 to 3000 ft
1500m to 5 km
500 to 1000 ft
800 to 1500m
200 to 500 ft
< 800m
< 200 ft
Symbols :   Thunderstorms  Fog  Heavy snow  Heavy precipitations  Wind > 20 kt
SIGMETs :     Misc.  Thunderstorms  Icing  Turbulence  Mountain Waves  Volcanic Ashes






- Airport Elevation : 408 ft
- IATA code : FKB


EDSB - Karlsruhe Baden Baden

CURRENT METAR :
  • 250320Z AUTO 19005KT 2600 // FEW003/// OVC015/// 00/M01 Q0999

EXPIRED METARs :
  • 250250Z AUTO 19005KT 2600 // BKN012/// BKN014/// OVC018/// 00/M01 Q0999
  • 250220Z AUTO 15003KT 110V200 9000 // FEW022/// OVC029/// 01/M01 Q0999
  • 250150Z AUTO 06003KT 9999 // OVC031/// 01/M01 Q0999
  • 250120Z AUTO 03004KT 9999 // BKN034/// OVC039/// 01/M01 Q0999
  • 250050Z AUTO VRB02KT 7000 // FEW024/// SCT027/// OVC036/// 01/M01 Q0999

TAF TAF EDSB
Valid from the 25 at 00:00 until the 26 at 00:00 UTC


242300Z 2500/2524 21006KT 9999 SCT040
TEMPO 2500/2509 2500 -SN BKN008
PROB40
TEMPO 2509/2516 3500 -SHRASN BKN014TCU
BECMG 2513/2515 27006KT
BECMG 2521/2523 20006KT



MET'MAP, your aeronautical weather chart ! - Copyright ORBIFLY December 2007 - Disclaimer

ORBIFLY MET'MAP TEAM :

Programming & Development : Alexandra Zaïnal
Concept & original design : Baudouin d'Aumeries
Assistance for programming : Marc-Olivier Méhu
Technical & hardware support : Manuel Goepfert

Contact : metmap@orbifly.com




SOURCES & CREDITS :

   NOAA